Time;durP1;ratioP1;P1;durP2;ratioP2;P2;SDS_P1;SDS_P2;PMS_P1;PMS_P2;Temp;Humidity;BMP_temperature;BMP_pressure;BME280_temperature;BME280_humidity;BME280_pressure;Samples;Min_cycle;Max_cycle;Signal;HPM_P1;HPM_P2
2021/09/27 00:00:32;;;;;;;38.65;29.98;;;16.70;99.90;;;;;;5095443;28;20114;-72
2021/09/27 00:02:58;;;;;;;33.40;27.67;;;16.70;99.90;;;;;;5094108;28;20133;-72
2021/09/27 00:05:24;;;;;;;35.97;27.98;;;16.70;99.90;;;;;;5094245;28;20076;-72
2021/09/27 00:07:50;;;;;;;43.85;31.05;;;16.60;99.90;;;;;;5094140;28;20050;-72
2021/09/27 00:10:27;;;;;;;34.55;26.35;;;16.60;99.90;;;;;;5095368;28;20044;-72
2021/09/27 00:12:54;;;;;;;32.20;27.40;;;16.50;99.90;;;;;;5095283;28;20039;-72
2021/09/27 00:15:28;;;;;;;31.75;26.30;;;16.50;99.90;;;;;;5095161;28;20080;-72
2021/09/27 00:17:53;;;;;;;29.15;24.67;;;16.50;99.90;;;;;;5093875;28;20044;-72
2021/09/27 00:20:20;;;;;;;32.75;26.23;;;16.50;99.90;;;;;;5093821;28;20389;-72
2021/09/27 00:22:48;;;;;;;32.35;26.20;;;16.50;99.90;;;;;;5093754;28;20073;-72
2021/09/27 00:25:15;;;;;;;29.38;24.73;;;16.40;99.90;;;;;;5095238;28;20051;-72
2021/09/27 00:27:41;;;;;;;28.83;25.70;;;16.40;99.90;;;;;;5095070;28;20119;-72
2021/09/27 00:30:08;;;;;;;28.30;24.98;;;16.40;99.90;;;;;;5094137;28;20071;-71
2021/09/27 00:32:34;;;;;;;29.45;24.38;;;16.40;99.90;;;;;;5094559;28;20048;-71
2021/09/27 00:35:00;;;;;;;29.60;25.52;;;16.40;99.90;;;;;;5094857;28;20085;-72
2021/09/27 00:37:26;;;;;;;31.48;25.05;;;16.30;99.90;;;;;;5094793;28;20043;-72
2021/09/27 00:39:52;;;;;;;33.03;27.20;;;16.30;99.90;;;;;;5094446;28;20051;-72
2021/09/27 00:42:17;;;;;;;35.05;26.00;;;16.30;99.90;;;;;;5094465;28;20040;-71
2021/09/27 00:44:43;;;;;;;31.52;24.00;;;16.30;99.90;;;;;;5094386;28;20118;-72
2021/09/27 00:47:09;;;;;;;30.65;24.15;;;16.20;99.90;;;;;;5095200;28;20045;-72
2021/09/27 00:49:34;;;;;;;28.58;24.10;;;16.20;99.90;;;;;;5093193;28;20028;-72
2021/09/27 00:52:00;;;;;;;29.33;23.45;;;16.20;99.90;;;;;;5094664;28;20162;-72
2021/09/27 00:54:31;;;;;;;29.17;24.15;;;16.20;99.90;;;;;;5094696;28;20036;-72
2021/09/27 00:57:05;;;;;;;28.13;23.77;;;16.20;99.90;;;;;;5094480;28;20055;-72
2021/09/27 00:59:32;;;;;;;29.25;23.38;;;16.20;99.90;;;;;;5076152;28;20048;-72
2021/09/27 01:01:58;;;;;;;28.45;22.73;;;16.20;99.90;;;;;;5094402;28;20047;-72
2021/09/27 01:04:24;;;;;;;27.77;24.02;;;16.20;99.90;;;;;;5094486;28;20047;-72
2021/09/27 01:07:02;;;;;;;29.17;23.88;;;16.30;99.90;;;;;;5094618;28;20115;-72
2021/09/27 01:09:48;;;;;;;32.22;25.73;;;16.30;99.90;;;;;;5092520;28;20048;-71
2021/09/27 01:12:24;;;;;;;39.08;25.08;;;16.30;99.90;;;;;;5092876;28;20040;-72
2021/09/27 01:15:11;;;;;;;30.67;25.15;;;16.20;99.90;;;;;;5094220;28;20066;-71
2021/09/27 01:17:55;;;;;;;30.65;24.52;;;16.30;99.90;;;;;;5094082;28;20047;-72
2021/09/27 01:21:01;;;;;;;30.85;25.52;;;16.20;99.90;;;;;;5092434;28;20073;-72
2021/09/27 01:23:57;;;;;;;29.90;23.90;;;16.20;99.90;;;;;;5094046;28;20040;-71
2021/09/27 01:26:41;;;;;;;29.10;24.38;;;16.20;99.90;;;;;;5094047;28;20097;-72
2021/09/27 01:29:47;;;;;;;31.08;24.52;;;16.20;99.90;;;;;;5092532;28;20040;-72
2021/09/27 01:32:33;;;;;;;32.92;25.02;;;16.20;99.90;;;;;;5092667;28;20062;-72
2021/09/27 01:35:12;;;;;;;36.17;28.35;;;16.10;99.90;;;;;;5092675;28;20040;-72
2021/09/27 01:38:07;;;;;;;35.72;25.17;;;16.20;99.90;;;;;;5092809;28;20036;-72
2021/09/27 01:40:51;;;;;;;32.20;24.08;;;16.10;99.90;;;;;;5091697;28;20081;-72
2021/09/27 01:43:51;;;;;;;32.35;25.02;;;16.10;99.90;;;;;;5092070;28;20040;-72
2021/09/27 01:46:52;;;;;;;35.90;27.27;;;16.10;99.90;;;;;;5092286;28;20118;-71
2021/09/27 01:49:35;;;;;;;48.45;28.85;;;16.00;99.90;;;;;;5095245;28;20048;-72
2021/09/27 01:52:09;;;;;;;28.92;25.05;;;16.00;99.90;;;;;;5093515;28;20120;-71
2021/09/27 01:54:43;;;;;;;30.45;24.15;;;16.00;99.90;;;;;;5075354;28;20072;-72
2021/09/27 01:57:34;;;;;;;32.58;23.73;;;15.90;99.90;;;;;;5093468;28;20111;-72
2021/09/27 02:00:22;;;;;;;36.40;26.10;;;15.90;99.90;;;;;;5093308;28;20040;-72
2021/09/27 02:02:53;;;;;;;30.45;24.38;;;15.90;99.90;;;;;;5093285;28;20079;-72
2021/09/27 02:05:30;;;;;;;34.20;26.63;;;15.90;99.90;;;;;;5093527;28;20387;-72
2021/09/27 02:08:07;;;;;;;34.88;26.70;;;15.80;99.90;;;;;;5092065;28;20050;-71
2021/09/27 02:10:37;;;;;;;30.92;25.80;;;15.80;99.90;;;;;;5091644;28;20086;-71
2021/09/27 02:13:23;;;;;;;38.17;25.67;;;15.80;99.90;;;;;;5091926;28;20126;-72
2021/09/27 02:16:14;;;;;;;32.42;24.60;;;15.80;99.90;;;;;;5092092;28;20044;-72
2021/09/27 02:19:04;;;;;;;29.40;24.73;;;15.70;99.90;;;;;;5091692;28;20093;-71
2021/09/27 02:21:33;;;;;;;33.50;26.02;;;15.70;99.90;;;;;;5091974;28;20541;-71
2021/09/27 02:24:17;;;;;;;31.35;24.70;;;15.70;99.90;;;;;;5093265;28;20032;-72
2021/09/27 02:26:46;;;;;;;41.70;29.10;;;15.70;99.90;;;;;;5092028;28;20044;-72
2021/09/27 02:29:12;;;;;;;28.77;24.73;;;15.60;99.90;;;;;;5091632;28;20051;-72
2021/09/27 02:32:02;;;;;;;34.83;26.52;;;15.60;99.90;;;;;;5093151;28;20051;-72
2021/09/27 02:34:51;;;;;;;34.13;25.80;;;15.60;99.90;;;;;;5093205;28;20173;-72
2021/09/27 02:37:21;;;;;;;34.53;25.77;;;15.60;99.90;;;;;;5093232;28;20044;-71
2021/09/27 02:39:50;;;;;;;35.25;27.48;;;15.60;99.90;;;;;;5091653;28;20043;-72
2021/09/27 02:42:36;;;;;;;42.28;27.25;;;15.60;99.90;;;;;;5092937;28;20036;-72
2021/09/27 02:45:05;;;;;;;35.00;27.35;;;15.60;99.90;;;;;;5091820;28;20464;-72
2021/09/27 02:47:45;;;;;;;37.80;26.15;;;15.60;99.90;;;;;;5092967;28;20047;-72
2021/09/27 02:50:13;;;;;;;30.20;23.88;;;15.60;99.90;;;;;;5091401;28;20044;-72
2021/09/27 02:52:39;;;;;;;41.60;28.63;;;15.60;99.90;;;;;;5093422;28;20061;-72
2021/09/27 02:55:11;;;;;;;33.00;25.38;;;15.60;99.90;;;;;;5094977;28;20419;-72
2021/09/27 02:57:39;;;;;;;39.10;26.50;;;15.60;99.90;;;;;;5097312;28;20173;-72
2021/09/27 03:00:22;;;;;;;35.95;27.00;;;15.50;99.90;;;;;;5095137;28;20044;-71
2021/09/27 03:03:06;;;;;;;39.55;27.52;;;15.50;99.90;;;;;;5095643;28;20054;-71
2021/09/27 03:05:50;;;;;;;;;;;15.50;99.90;;;;;;5095807;28;20127;-71
2021/09/27 03:08:28;;;;;;;39.30;27.17;;;15.50;99.90;;;;;;5097128;28;19916;-71
2021/09/27 03:11:32;;;;;;;37.47;26.52;;;15.40;99.90;;;;;;5096987;28;20043;-71
2021/09/27 03:14:34;;;;;;;36.70;27.27;;;15.40;99.90;;;;;;5095841;28;20043;-72
2021/09/27 03:17:06;;;;;;;33.25;24.48;;;15.40;99.90;;;;;;5095172;28;20124;-71
2021/09/27 03:19:45;;;;;;;38.72;27.90;;;15.40;99.90;;;;;;5094998;28;20044;-72
2021/09/27 03:22:31;;;;;;;28.92;25.02;;;15.40;99.90;;;;;;5096339;28;20089;-71
2021/09/27 03:25:09;;;;;;;35.92;24.10;;;15.50;99.90;;;;;;5096706;28;20040;-72
2021/09/27 03:28:13;;;;;;;31.13;24.10;;;15.40;99.90;;;;;;5096466;28;20065;-72
2021/09/27 03:30:59;;;;;;;37.03;24.98;;;15.40;99.90;;;;;;5096139;28;20380;-72
2021/09/27 03:33:47;;;;;;;31.08;23.77;;;15.40;99.90;;;;;;5095366;28;20036;-72
2021/09/27 03:36:23;;;;;;;32.00;23.77;;;15.30;99.90;;;;;;5096433;28;20043;-72
2021/09/27 03:38:48;;;;;;;34.22;23.85;;;15.30;99.90;;;;;;5094710;28;20044;-72
2021/09/27 03:41:36;;;;;;;41.92;26.27;;;15.30;99.90;;;;;;5094500;28;20530;-71
2021/09/27 03:44:14;;;;;;;35.22;25.60;;;15.30;99.90;;;;;;5096228;28;20107;-72
2021/09/27 03:46:58;;;;;;;32.65;22.88;;;15.30;99.90;;;;;;5077990;28;20036;-71
2021/09/27 03:49:55;;;;;;;30.20;23.20;;;15.30;99.90;;;;;;5094145;28;20078;-71
2021/09/27 03:52:35;;;;;;;28.33;21.92;;;15.30;99.90;;;;;;5094715;28;20040;-72
2021/09/27 03:55:16;;;;;;;31.33;22.65;;;15.20;99.90;;;;;;5094833;28;20048;-72
2021/09/27 03:58:00;;;;;;;35.33;24.40;;;15.30;99.90;;;;;;5094334;28;20086;-71
2021/09/27 04:00:34;;;;;;;35.33;24.95;;;15.20;99.90;;;;;;5077083;28;20119;-71
2021/09/27 04:03:22;;;;;;;35.42;24.30;;;15.20;99.90;;;;;;5094291;28;20044;-72
2021/09/27 04:06:24;;;;;;;33.45;22.98;;;15.20;99.90;;;;;;5095263;28;20131;-71
2021/09/27 04:09:07;;;;;;;34.72;23.90;;;15.10;99.90;;;;;;5095390;28;20066;-71
2021/09/27 04:12:02;;;;;;;30.60;24.58;;;15.10;99.90;;;;;;5094284;28;20051;-71
2021/09/27 04:14:47;;;;;;;30.60;22.77;;;15.10;99.90;;;;;;5093928;28;20040;-71
2021/09/27 04:17:20;;;;;;;32.70;22.73;;;15.10;99.90;;;;;;5094016;28;20044;-72
2021/09/27 04:19:46;;;;;;;34.17;23.98;;;15.00;99.90;;;;;;5095355;28;20122;-71
2021/09/27 04:22:23;;;;;;;29.80;23.20;;;15.00;99.90;;;;;;5095133;28;20123;-71
2021/09/27 04:25:01;;;;;;;31.15;23.98;;;15.00;99.90;;;;;;5093878;28;20403;-71
2021/09/27 04:28:06;;;;;;;38.80;28.00;;;15.00;99.90;;;;;;5093726;28;20510;-71
2021/09/27 04:30:43;;;;;;;35.70;24.17;;;14.90;99.90;;;;;;5094652;28;20074;-72
2021/09/27 04:33:30;;;;;;;41.28;26.77;;;14.90;99.90;;;;;;5094895;28;20083;-71
2021/09/27 04:35:59;;;;;;;35.33;25.73;;;14.90;99.90;;;;;;5093659;28;20055;-71
2021/09/27 04:38:27;;;;;;;34.88;23.33;;;14.90;99.90;;;;;;5093609;28;20035;-72
2021/09/27 04:41:23;;;;;;;33.75;25.15;;;14.90;99.90;;;;;;5094823;28;20040;-71
2021/09/27 04:44:08;;;;;;;34.47;25.17;;;14.90;99.90;;;;;;5093704;28;20097;-70
2021/09/27 04:46:52;;;;;;;29.80;22.38;;;14.90;99.90;;;;;;5093474;28;20044;-71
2021/09/27 04:49:52;;;;;;;31.60;22.73;;;14.90;99.90;;;;;;5093169;28;20555;-71
2021/09/27 04:52:42;;;;;;;31.88;24.05;;;14.90;99.90;;;;;;5093555;28;20047;-71
2021/09/27 04:55:17;;;;;;;35.78;25.08;;;14.90;99.90;;;;;;5094680;28;20415;-71
2021/09/27 04:57:46;;;;;;;32.95;23.80;;;14.80;99.90;;;;;;5093431;28;20505;-69
2021/09/27 05:00:39;;;;;;;32.83;23.08;;;14.80;99.90;;;;;;5093298;28;20459;-71
2021/09/27 05:03:35;;;;;;;34.88;23.63;;;14.80;99.90;;;;;;5092940;28;20044;-71
2021/09/27 05:06:25;;;;;;;30.88;23.02;;;14.80;99.90;;;;;;5093290;28;20403;-71
2021/09/27 05:09:00;;;;;;;34.95;24.27;;;14.70;99.90;;;;;;5094087;28;20036;-71
2021/09/27 05:11:29;;;;;;;38.50;24.42;;;14.80;99.90;;;;;;5094523;28;20079;-71
2021/09/27 05:14:38;;;;;;;33.67;23.98;;;14.70;99.90;;;;;;5093127;28;20392;-71
2021/09/27 05:17:10;;;;;;;32.25;22.13;;;14.70;99.90;;;;;;5075547;28;20476;-71
2021/09/27 05:19:53;;;;;;;30.15;21.42;;;14.70;99.90;;;;;;5093965;28;20115;-71
2021/09/27 05:23:01;;;;;;;34.53;23.17;;;14.60;99.90;;;;;;5092826;28;20043;-71
2021/09/27 05:25:47;;;;;;;34.00;23.17;;;14.60;99.90;;;;;;5093729;28;20534;-71
2021/09/27 05:28:18;;;;;;;30.30;22.85;;;14.60;99.90;;;;;;5092936;28;20342;-70
2021/09/27 05:31:09;;;;;;;32.67;21.60;;;14.60;99.90;;;;;;5092559;28;20040;-70
2021/09/27 05:33:40;;;;;;;33.10;23.40;;;14.60;99.90;;;;;;5092717;28;20040;-70
2021/09/27 05:36:27;;;;;;;31.40;23.15;;;14.60;99.90;;;;;;5093124;28;20632;-74
2021/09/27 05:39:01;;;;;;;32.05;24.25;;;14.50;99.90;;;;;;5092329;28;20503;-74
2021/09/27 05:41:29;;;;;;;35.25;25.45;;;14.50;99.90;;;;;;5093625;28;20095;-74
2021/09/27 05:44:29;;;;;;;38.08;25.52;;;14.40;99.90;;;;;;5092893;28;20051;-74
2021/09/27 05:47:13;;;;;;;33.15;25.23;;;14.50;99.90;;;;;;5092915;28;20500;-73
2021/09/27 05:49:57;;;;;;;37.83;24.73;;;14.40;99.90;;;;;;5075340;28;20062;-73
2021/09/27 05:52:45;;;;;;;33.42;24.10;;;14.40;99.90;;;;;;5092507;28;20067;-73
2021/09/27 05:55:32;;;;;;;40.67;27.65;;;14.50;99.90;;;;;;5092536;28;20035;-74
2021/09/27 05:58:14;;;;;;;34.30;24.33;;;14.50;99.90;;;;;;5093612;28;20044;-74
2021/09/27 06:00:47;;;;;;;42.45;26.45;;;14.50;99.90;;;;;;5093144;28;20040;-73
2021/09/27 06:03:54;;;;;;;38.92;26.83;;;14.40;99.90;;;;;;5091860;28;20048;-74
2021/09/27 06:06:33;;;;;;;44.75;27.27;;;14.50;99.90;;;;;;5093235;28;20044;-74
2021/09/27 06:09:43;;;;;;;40.33;27.35;;;14.40;99.90;;;;;;5091848;28;20048;-74
2021/09/27 06:12:32;;;;;;;35.10;25.15;;;14.50;99.90;;;;;;5097598;28;20424;-73
2021/09/27 06:15:03;;;;;;;36.65;26.55;;;14.50;99.90;;;;;;5093446;28;20036;-73
2021/09/27 06:17:54;;;;;;;36.90;26.25;;;14.50;99.90;;;;;;5093152;28;20040;-72
2021/09/27 06:20:29;;;;;;;34.58;24.33;;;14.60;99.90;;;;;;5092935;28;20040;-73
2021/09/27 06:23:21;;;;;;;41.63;27.63;;;14.70;99.90;;;;;;5093498;28;20040;-73
2021/09/27 06:26:10;;;;;;;41.00;27.75;;;14.80;99.90;;;;;;5093586;28;20040;-73
2021/09/27 06:29:05;;;;;;;52.22;30.95;;;14.90;99.90;;;;;;5093073;28;20042;-73
2021/09/27 06:31:53;;;;;;;40.33;27.35;;;14.90;99.90;;;;;;5097628;28;20036;-73
2021/09/27 06:34:25;;;;;;;45.63;30.73;;;15.00;99.90;;;;;;5095627;28;20054;-73
2021/09/27 06:36:51;;;;;;;56.20;31.58;;;15.00;99.90;;;;;;5097413;28;20043;-73
2021/09/27 06:39:23;;;;;;;57.45;35.03;;;15.20;99.90;;;;;;5096872;28;20040;-73
2021/09/27 06:41:51;;;;;;;51.25;32.65;;;15.30;99.90;;;;;;5097064;28;20563;-73
2021/09/27 06:44:17;;;;;;;59.28;35.10;;;15.30;99.90;;;;;;5097016;28;20032;-73
2021/09/27 06:46:43;;;;;;;54.70;34.83;;;15.40;99.90;;;;;;5096921;28;20028;-73
2021/09/27 06:49:09;;;;;;;64.13;35.83;;;15.50;99.90;;;;;;5096678;28;20079;-73
2021/09/27 06:51:41;;;;;;;56.90;34.92;;;15.50;99.90;;;;;;5095831;28;20051;-73
2021/09/27 06:54:10;;;;;;;59.20;35.67;;;15.60;99.90;;;;;;5095807;28;20051;-73
2021/09/27 06:56:37;;;;;;;55.08;35.60;;;15.60;99.90;;;;;;5096848;28;20089;-73
2021/09/27 06:59:03;;;;;;;59.00;37.03;;;15.60;99.90;;;;;;5096595;28;20063;-73
2021/09/27 07:01:29;;;;;;;53.67;35.72;;;15.70;99.90;;;;;;5096438;28;20051;-73
2021/09/27 07:03:54;;;;;;;54.45;34.55;;;15.70;99.90;;;;;;5096864;28;20091;-73
2021/09/27 07:06:20;;;;;;;69.82;37.67;;;15.70;99.90;;;;;;5097260;28;20072;-73
2021/09/27 07:08:45;;;;;;;53.95;33.03;;;15.80;99.90;;;;;;5096550;28;20044;-74
2021/09/27 07:11:13;;;;;;;53.20;34.05;;;15.80;99.90;;;;;;5095563;28;20032;-73
2021/09/27 07:13:39;;;;;;;53.42;34.00;;;15.80;99.90;;;;;;5096780;28;20040;-73
2021/09/27 07:16:06;;;;;;;52.42;33.78;;;15.90;99.90;;;;;;5095358;28;20123;-73
2021/09/27 07:18:32;;;;;;;56.78;35.20;;;15.90;99.90;;;;;;5096370;28;20040;-73
2021/09/27 07:20:59;;;;;;;59.13;35.90;;;15.80;99.90;;;;;;5094953;28;20113;-73
2021/09/27 07:23:26;;;;;;;56.42;34.78;;;15.90;99.90;;;;;;5096160;28;20504;-73
2021/09/27 07:25:52;;;;;;;61.45;36.72;;;16.00;99.90;;;;;;5096308;28;20097;-73
2021/09/27 07:28:19;;;;;;;55.65;35.40;;;16.00;99.90;;;;;;5096285;28;20072;-73
2021/09/27 07:30:48;;;;;;;52.88;35.08;;;16.00;99.90;;;;;;5096370;28;20043;-73
2021/09/27 07:33:13;;;;;;;59.03;33.38;;;16.00;99.90;;;;;;5078237;28;20044;-73
2021/09/27 07:35:39;;;;;;;54.78;36.88;;;16.10;99.90;;;;;;5096315;28;20046;-74
2021/09/27 07:38:05;;;;;;;56.92;35.88;;;16.10;99.90;;;;;;5096418;28;20071;-73
2021/09/27 07:40:34;;;;;;;58.53;35.83;;;16.20;99.90;;;;;;5094140;28;20062;-73
2021/09/27 07:43:00;;;;;;;55.28;34.92;;;16.20;99.90;;;;;;5094852;28;20448;-73
2021/09/27 07:45:27;;;;;;;54.78;34.38;;;16.20;99.90;;;;;;5094961;28;20040;-73
2021/09/27 07:47:53;;;;;;;57.72;36.08;;;16.30;99.90;;;;;;5096049;28;20028;-73
2021/09/27 07:50:19;;;;;;;58.10;35.47;;;16.30;99.90;;;;;;5095661;28;20115;-73
2021/09/27 07:52:45;;;;;;;57.58;35.13;;;16.30;99.90;;;;;;5095867;28;20051;-73
2021/09/27 07:55:11;;;;;;;62.28;36.60;;;16.30;99.90;;;;;;5096164;28;20044;-73
2021/09/27 07:57:37;;;;;;;63.42;35.92;;;16.40;99.90;;;;;;5094813;28;20035;-73
2021/09/27 08:00:06;;;;;;;63.90;36.88;;;16.40;99.90;;;;;;5095335;28;20065;-73
2021/09/27 08:02:32;;;;;;;58.50;34.50;;;16.50;99.90;;;;;;5094115;28;20487;-73
2021/09/27 08:04:58;;;;;;;52.97;31.75;;;16.50;99.90;;;;;;5095634;28;20059;-73
2021/09/27 08:07:24;;;;;;;59.58;35.65;;;16.50;99.90;;;;;;5095462;28;20047;-73
2021/09/27 08:09:50;;;;;;;61.45;37.60;;;16.60;99.90;;;;;;5094938;28;20036;-73
2021/09/27 08:12:17;;;;;;;58.28;34.72;;;16.60;99.90;;;;;;5095143;28;20127;-74
2021/09/27 08:14:43;;;;;;;52.28;31.83;;;16.60;99.90;;;;;;5093977;28;20578;-73
2021/09/27 08:17:09;;;;;;;52.10;33.28;;;16.70;99.90;;;;;;5095368;28;20046;-74
2021/09/27 08:19:38;;;;;;;47.97;30.55;;;16.80;99.90;;;;;;5093828;28;20047;-75
2021/09/27 08:22:04;;;;;;;55.65;33.45;;;16.70;99.90;;;;;;5093813;28;20052;-73
2021/09/27 08:24:30;;;;;;;56.40;34.22;;;16.80;99.90;;;;;;5095482;28;20033;-74
2021/09/27 08:26:56;;;;;;;48.13;29.10;;;16.80;99.90;;;;;;5095414;28;20046;-73
2021/09/27 08:29:21;;;;;;;49.15;31.10;;;16.90;99.90;;;;;;5094700;28;20036;-73
2021/09/27 08:31:47;;;;;;;48.08;30.23;;;16.90;99.90;;;;;;5095085;28;20484;-72
2021/09/27 08:34:13;;;;;;;48.65;30.20;;;16.90;99.90;;;;;;5094193;28;20044;-72
2021/09/27 08:36:39;;;;;;;45.30;29.52;;;17.00;99.90;;;;;;5095341;28;20354;-73
2021/09/27 08:39:05;;;;;;;41.33;27.63;;;17.00;99.90;;;;;;5093439;28;20028;-74
2021/09/27 08:41:51;;;;;;;41.70;26.52;;;17.10;99.90;;;;;;5094750;28;20036;-74
2021/09/27 08:44:36;;;;;;;45.00;28.25;;;17.10;99.90;;;;;;5094881;28;20480;-74
2021/09/27 08:47:08;;;;;;;38.75;27.13;;;17.20;99.90;;;;;;5094757;28;20040;-73
2021/09/27 08:49:52;;;;;;;41.42;26.13;;;17.30;99.90;;;;;;5094402;28;20515;-74
2021/09/27 08:52:19;;;;;;;;;;;17.30;99.90;;;;;;5092821;28;20126;-74
2021/09/27 08:54:46;;;;;;;34.97;24.60;;;17.30;99.90;;;;;;5094618;28;19916;-74
2021/09/27 08:57:49;;;;;;;34.72;26.10;;;17.30;99.90;;;;;;5094408;28;20089;-74
2021/09/27 09:00:24;;;;;;;36.72;26.00;;;17.50;99.90;;;;;;5093100;28;20040;-74
2021/09/27 09:03:18;;;;;;;35.03;24.88;;;17.70;99.90;;;;;;5092865;28;20051;-74
2021/09/27 09:05:50;;;;;;;;;;;17.80;99.90;;;;;;5093576;28;20070;-74
2021/09/27 09:08:26;;;;;;;30.88;22.80;;;17.90;99.90;;;;;;5094302;28;19916;-74
2021/09/27 09:10:58;;;;;;;26.63;21.65;;;17.90;99.90;;;;;;5093926;28;20115;-74
2021/09/27 09:13:30;;;;;;;28.70;22.27;;;18.00;99.90;;;;;;5094296;28;20036;-74
2021/09/27 09:16:03;;;;;;;30.83;22.63;;;18.10;99.90;;;;;;5094341;28;20061;-74
2021/09/27 09:18:40;;;;;;;28.93;22.07;;;18.20;99.90;;;;;;5092507;28;20120;-74
2021/09/27 09:21:12;;;;;;;27.40;20.17;;;18.40;99.90;;;;;;5076313;28;20328;-74
2021/09/27 09:23:51;;;;;;;25.20;19.83;;;18.60;99.90;;;;;;5092872;28;20113;-74
2021/09/27 09:26:40;;;;;;;22.90;18.70;;;18.70;99.90;;;;;;5094185;28;20536;-74
2021/09/27 09:29:07;;;;;;;24.50;19.55;;;18.70;99.90;;;;;;5093753;28;20028;-73
2021/09/27 09:31:47;;;;;;;24.40;18.58;;;18.90;99.90;;;;;;5093812;28;20086;-73
2021/09/27 09:34:19;;;;;;;29.02;18.85;;;19.00;99.90;;;;;;5093786;28;20078;-74
2021/09/27 09:36:51;;;;;;;23.75;18.70;;;19.00;99.90;;;;;;5093871;28;20101;-74
2021/09/27 09:39:26;;;;;;;24.30;16.87;;;19.10;99.90;;;;;;5092726;28;20048;-74
2021/09/27 09:41:58;;;;;;;21.55;17.42;;;19.20;99.90;;;;;;5092683;28;20044;-74
2021/09/27 09:44:32;;;;;;;22.40;16.70;;;19.40;99.90;;;;;;5093722;28;20040;-74
2021/09/27 09:47:03;;;;;;;21.80;15.77;;;19.60;99.90;;;;;;5093922;28;20058;-74
2021/09/27 09:49:48;;;;;;;18.25;15.48;;;19.70;99.90;;;;;;5092002;28;20396;-74
2021/09/27 09:52:24;;;;;;;18.77;14.07;;;19.80;99.90;;;;;;5093542;28;20101;-74
2021/09/27 09:54:51;;;;;;;21.42;15.70;;;19.80;99.90;;;;;;5093970;28;20052;-74
2021/09/27 09:57:37;;;;;;;20.42;15.73;;;19.70;99.90;;;;;;5094448;28;20036;-74
2021/09/27 10:00:33;;;;;;;27.20;14.82;;;19.90;99.90;;;;;;5093428;28;20484;-74
2021/09/27 10:03:00;;;;;;;19.25;14.57;;;20.10;99.90;;;;;;5081831;28;20036;-73
2021/09/27 10:05:35;;;;;;;20.60;13.65;;;20.10;99.90;;;;;;5073355;28;20125;-72
2021/09/27 10:08:04;;;;;;;19.60;15.32;;;20.20;99.90;;;;;;5073361;28;20040;-72
2021/09/27 10:10:40;;;;;;;25.48;17.55;;;20.20;99.90;;;;;;5073359;28;20055;-73
2021/09/27 10:13:34;;;;;;;20.52;17.00;;;20.10;99.90;;;;;;5073419;28;20042;-73
2021/09/27 10:16:06;;;;;;;21.52;14.95;;;20.10;99.90;;;;;;5069977;28;20084;-73
2021/09/27 10:18:34;;;;;;;21.90;16.42;;;20.20;99.90;;;;;;5073231;28;20051;-74
2021/09/27 10:21:05;;;;;;;19.90;14.90;;;20.30;99.90;;;;;;5072465;28;20435;-72
2021/09/27 10:23:37;;;;;;;18.77;14.73;;;20.30;99.90;;;;;;5073195;28;20075;-73
2021/09/27 10:26:19;;;;;;;20.05;14.50;;;20.30;99.90;;;;;;5073047;28;20044;-73
2021/09/27 10:28:48;;;;;;;16.30;14.02;;;20.20;99.90;;;;;;5072978;28;20041;-73
2021/09/27 10:31:14;;;;;;;16.92;13.75;;;20.10;99.90;;;;;;5072973;28;20037;-72
2021/09/27 10:33:46;;;;;;;17.63;13.15;;;20.20;99.90;;;;;;5072860;28;20032;-74
2021/09/27 10:36:19;;;;;;;17.53;12.90;;;20.30;99.90;;;;;;5073010;28;20127;-75
2021/09/27 10:38:49;;;;;;;18.73;13.43;;;20.40;99.90;;;;;;5071091;28;20828;-74
2021/09/27 10:41:34;;;;;;;14.88;13.27;;;20.50;99.90;;;;;;5073010;28;20382;-74
2021/09/27 10:44:11;;;;;;;14.20;12.68;;;20.60;99.90;;;;;;5073437;28;20163;-73
2021/09/27 10:46:40;;;;;;;15.68;11.95;;;20.60;99.90;;;;;;5071830;28;20040;-73
2021/09/27 10:49:31;;;;;;;15.02;12.88;;;20.60;99.90;;;;;;5072514;28;20033;-74
2021/09/27 10:52:22;;;;;;;17.05;12.85;;;20.70;99.90;;;;;;5072372;28;20450;-74
2021/09/27 10:55:16;;;;;;;13.13;11.48;;;20.80;99.90;;;;;;5072949;28;20048;-73
2021/09/27 10:57:56;;;;;;;15.73;11.13;;;20.90;99.90;;;;;;5063880;28;20053;-74
2021/09/27 11:00:48;;;;;;;14.95;11.35;;;21.00;99.90;;;;;;5071347;28;20123;-74
2021/09/27 11:03:33;;;;;;;15.85;12.52;;;21.10;99.90;;;;;;5072511;28;20400;-73
2021/09/27 11:06:23;;;;;;;14.43;10.95;;;21.10;99.90;;;;;;5072813;28;20055;-73
2021/09/27 11:08:55;;;;;;;14.65;11.38;;;21.10;99.90;;;;;;5071334;28;20127;-74
2021/09/27 11:11:36;;;;;;;13.48;12.07;;;21.10;99.90;;;;;;5072533;28;20107;-74
2021/09/27 11:14:23;;;;;;;13.85;10.07;;;21.20;99.90;;;;;;5073013;28;20058;-73
2021/09/27 11:17:15;;;;;;;14.18;10.15;;;21.20;99.90;;;;;;5076113;28;20127;-73
2021/09/27 11:19:43;;;;;;;13.00;10.65;;;21.20;99.90;;;;;;5075021;28;20139;-73
2021/09/27 11:22:15;;;;;;;11.95;10.75;;;21.20;99.90;;;;;;5076713;28;20040;-73
2021/09/27 11:24:44;;;;;;;12.07;9.80;;;21.10;99.90;;;;;;5074989;28;20041;-73
2021/09/27 11:27:15;;;;;;;13.82;10.13;;;21.10;99.90;;;;;;5076078;28;20047;-73
2021/09/27 11:29:46;;;;;;;10.90;9.63;;;21.10;99.90;;;;;;5075690;28;20043;-72
2021/09/27 11:32:29;;;;;;;11.00;9.40;;;21.20;99.90;;;;;;5075123;28;20055;-72
2021/09/27 11:35:16;;;;;;;11.32;9.40;;;21.20;99.90;;;;;;5074854;28;20098;-71
2021/09/27 11:37:41;;;;;;;11.68;8.85;;;21.20;99.90;;;;;;5074488;28;20072;-70
2021/09/27 11:40:33;;;;;;;13.45;9.07;;;21.20;99.90;;;;;;5074453;28;20126;-71
2021/09/27 11:43:24;;;;;;;10.65;8.93;;;21.10;99.90;;;;;;5072952;28;20071;-71
2021/09/27 11:46:06;;;;;;;14.70;8.20;;;21.30;99.90;;;;;;5075641;28;20036;-71
2021/09/27 11:48:46;;;;;;;9.32;8.18;;;21.30;99.90;;;;;;5074157;28;20041;-72
2021/09/27 11:51:25;;;;;;;10.35;8.75;;;21.30;99.90;;;;;;5075385;28;20067;-71
2021/09/27 11:53:53;;;;;;;11.73;7.85;;;21.30;99.90;;;;;;5075600;28;20389;-72
2021/09/27 11:56:22;;;;;;;11.10;7.88;;;21.20;99.90;;;;;;5075824;28;20044;-71
2021/09/27 11:59:14;;;;;;;9.60;8.23;;;21.20;99.90;;;;;;5075305;28;20045;-72
2021/09/27 12:01:43;;;;;;;11.15;8.48;;;21.10;99.90;;;;;;5075362;28;20048;-71
2021/09/27 12:04:43;;;;;;;12.07;8.75;;;21.00;99.90;;;;;;5075312;28;20163;-72
2021/09/27 12:07:13;;;;;;;12.05;8.40;;;21.00;99.90;;;;;;5076255;28;20036;-71
2021/09/27 12:09:55;;;;;;;12.80;8.57;;;21.10;99.90;;;;;;5075193;28;20041;-71
2021/09/27 12:12:29;;;;;;;11.57;8.25;;;21.30;99.90;;;;;;5075127;28;20378;-72
2021/09/27 12:14:59;;;;;;;8.85;7.95;;;21.50;99.90;;;;;;5075257;28;20079;-72
2021/09/27 12:17:32;;;;;;;9.40;8.23;;;21.60;99.90;;;;;;5075101;28;20047;-70
2021/09/27 12:20:34;;;;;;;13.52;8.18;;;21.70;99.90;;;;;;5074790;28;20403;-70
2021/09/27 12:23:01;;;;;;;8.40;6.88;;;21.70;99.90;;;;;;5074105;28;20086;-70
2021/09/27 12:25:35;;;;;;;12.30;8.23;;;21.80;99.90;;;;;;5073749;28;20070;-70
2021/09/27 12:28:05;;;;;;;12.60;7.57;;;21.80;99.90;;;;;;5074264;28;20101;-70
2021/09/27 12:30:36;;;;;;;9.70;7.25;;;21.70;99.90;;;;;;5074915;28;20068;-70
2021/09/27 12:33:25;;;;;;;9.45;6.90;;;21.80;99.90;;;;;;5074698;28;20086;-70
2021/09/27 12:36:20;;;;;;;9.65;6.60;;;21.80;99.90;;;;;;5074988;28;20075;-70
2021/09/27 12:38:54;;;;;;;9.15;6.63;;;21.90;99.90;;;;;;5074650;28;20036;-70
2021/09/27 12:41:23;;;;;;;9.43;6.35;;;21.90;99.90;;;;;;5073152;28;20469;-69
2021/09/27 12:43:49;;;;;;;8.35;6.20;;;21.80;99.90;;;;;;5073570;28;20051;-70
2021/09/27 12:46:25;;;;;;;9.52;6.80;;;21.90;99.90;;;;;;5074613;28;20037;-70
2021/09/27 12:48:57;;;;;;;9.45;6.30;;;21.90;99.90;;;;;;5074233;28;20116;-70
2021/09/27 12:51:31;;;;;;;7.93;5.70;;;21.90;99.90;;;;;;5074319;28;20068;-69
2021/09/27 12:54:35;;;;;;;7.13;5.78;;;22.00;99.90;;;;;;5074604;28;20033;-69
2021/09/27 12:57:04;;;;;;;;;;;21.90;99.90;;;;;;5074990;28;20041;-69
2021/09/27 12:59:32;;;;;;;6.88;5.55;;;21.90;99.90;;;;;;5073967;28;20396;-69
2021/09/27 13:02:04;;;;;;;7.93;5.40;;;21.80;99.90;;;;;;5073965;28;20080;-70
2021/09/27 13:04:35;;;;;;;10.60;5.50;;;21.80;99.90;;;;;;5074187;28;20416;-70
2021/09/27 13:07:10;;;;;;;9.30;5.45;;;21.80;99.90;;;;;;5074367;28;20094;-70
2021/09/27 13:09:54;;;;;;;10.07;5.25;;;21.70;99.90;;;;;;5073850;28;20043;-70
2021/09/27 13:12:29;;;;;;;8.02;5.88;;;21.70;99.90;;;;;;5073904;28;20098;-70
2021/09/27 13:15:15;;;;;;;7.80;5.55;;;21.70;99.90;;;;;;5072878;28;20044;-70
2021/09/27 13:18:12;;;;;;;7.13;5.90;;;21.60;99.90;;;;;;5073799;28;20380;-70
2021/09/27 13:20:59;;;;;;;5.88;5.22;;;21.50;99.90;;;;;;5073811;28;20140;-70